Time;durP1;ratioP1;P1;durP2;ratioP2;P2;SDS_P1;SDS_P2;PMS_P1;PMS_P2;Temp;Humidity;BMP_temperature;BMP_pressure;BME280_temperature;BME280_humidity;BME280_pressure;Samples;Min_cycle;Max_cycle;Signal;HPM_P1;HPM_P2
2022/12/16 00:01:53;;;;;;;2.50;0.98;;;;;;;0.03;100.00;91028.59;5032364;28;20735;-78
2022/12/16 00:04:19;;;;;;;0.75;0.75;;;;;;;0.03;100.00;91031.94;5033860;28;20029;-77
2022/12/16 00:06:45;;;;;;;1.17;0.85;;;;;;;0.04;100.00;91019.84;5034887;28;20041;-78
2022/12/16 00:09:10;;;;;;;1.15;0.90;;;;;;;0.03;100.00;91016.50;5036684;28;20045;-78
2022/12/16 00:11:36;;;;;;;1.35;0.80;;;;;;;0.06;100.00;91018.53;5037370;28;20083;-78
2022/12/16 00:14:02;;;;;;;0.70;0.70;;;;;;;0.07;100.00;91012.38;5036742;28;20053;-78
2022/12/16 00:16:28;;;;;;;1.45;0.88;;;;;;;0.05;100.00;91006.72;5037538;28;20029;-78
2022/12/16 00:18:54;;;;;;;0.63;0.63;;;;;;;0.12;100.00;91001.31;5036593;28;20064;-78
2022/12/16 00:21:20;;;;;;;0.70;0.70;;;;;;;0.12;100.00;90994.38;5036877;28;20380;-78
2022/12/16 00:23:46;;;;;;;0.80;0.80;;;;;;;0.15;100.00;91000.78;5034681;28;20034;-78
2022/12/16 00:26:12;;;;;;;0.85;0.82;;;;;;;0.16;100.00;90995.41;5036834;28;20033;-78
2022/12/16 00:28:39;;;;;;;0.73;0.73;;;;;;;0.18;100.00;90993.34;5035122;28;20509;-79
2022/12/16 00:31:05;;;;;;;1.23;0.80;;;;;;;0.24;100.00;91003.63;5035415;28;20068;-79
2022/12/16 00:33:31;;;;;;;0.82;0.70;;;;;;;0.26;100.00;90991.25;5036392;28;20048;-79
2022/12/16 00:35:57;;;;;;;1.50;0.70;;;;;;;0.26;100.00;90992.03;5036566;28;20450;-78
2022/12/16 00:38:25;;;;;;;0.98;0.88;;;;;;;0.24;100.00;90991.50;5015224;28;20046;-79
2022/12/16 00:40:51;;;;;;;0.80;0.80;;;;;;;0.23;100.00;90981.50;5014692;28;20523;-78
2022/12/16 00:43:16;;;;;;;0.80;0.73;;;;;;;0.24;100.00;90988.19;5016963;28;20046;-78
2022/12/16 00:45:42;;;;;;;0.60;0.60;;;;;;;0.24;100.00;90990.75;5014927;28;20038;-78
2022/12/16 00:48:07;;;;;;;0.60;0.60;;;;;;;0.29;100.00;90995.88;5015702;28;20124;-78
2022/12/16 00:50:33;;;;;;;0.80;0.70;;;;;;;0.28;100.00;90994.34;5014895;28;20046;-78
2022/12/16 00:52:59;;;;;;;0.60;0.60;;;;;;;0.31;100.00;90997.16;5019797;28;20037;-78
2022/12/16 00:55:25;;;;;;;0.60;0.60;;;;;;;0.32;100.00;90990.25;5036091;28;20438;-78
2022/12/16 00:57:51;;;;;;;1.40;0.70;;;;;;;0.33;100.00;90992.53;5018162;28;20034;-79
2022/12/16 01:00:17;;;;;;;0.70;0.70;;;;;;;0.29;100.00;90995.88;5034794;28;20171;-78
2022/12/16 01:02:46;;;;;;;0.90;0.88;;;;;;;0.26;100.00;90996.41;5034288;28;20129;-78
2022/12/16 01:05:14;;;;;;;1.23;0.80;;;;;;;0.23;100.00;91008.00;5031459;28;20448;-78
2022/12/16 01:07:39;;;;;;;1.00;0.90;;;;;;;0.28;100.00;91007.22;5013989;28;20069;-78
2022/12/16 01:10:07;;;;;;;0.70;0.70;;;;;;;0.30;100.00;91000.03;5013828;28;20033;-77
2022/12/16 01:12:34;;;;;;;1.35;0.75;;;;;;;0.33;100.00;90997.69;5015496;28;20376;-77
2022/12/16 01:15:00;;;;;;;1.77;0.98;;;;;;;0.34;100.00;90995.91;5039991;28;20045;-77
2022/12/16 01:17:25;;;;;;;1.58;1.00;;;;;;;0.36;100.00;90996.38;5048937;28;20026;-77
2022/12/16 01:19:52;;;;;;;1.05;0.80;;;;;;;0.35;100.00;91000.00;5046238;28;20034;-77
2022/12/16 01:22:17;;;;;;;0.88;0.82;;;;;;;0.33;100.00;90999.50;5015102;28;20484;-78
2022/12/16 01:24:43;;;;;;;0.95;0.80;;;;;;;0.32;100.00;91005.69;5013167;28;20037;-77
2022/12/16 01:27:10;;;;;;;0.75;0.73;;;;;;;0.34;100.00;90998.47;5012209;28;20045;-78
2022/12/16 01:29:35;;;;;;;0.82;0.73;;;;;;;0.35;100.00;91000.00;5012540;28;20526;-78
2022/12/16 01:32:01;;;;;;;0.77;0.77;;;;;;;0.35;100.00;90994.84;5012808;28;20048;-78
2022/12/16 01:34:26;;;;;;;0.85;0.85;;;;;;;0.37;100.00;90992.78;5016025;28;20045;-79
2022/12/16 01:36:52;;;;;;;0.98;0.80;;;;;;;0.37;100.00;91001.28;5016114;28;20395;-78
2022/12/16 01:39:17;;;;;;;1.48;0.90;;;;;;;0.36;100.00;90992.03;5033662;28;20026;-78
2022/12/16 01:41:43;;;;;;;1.48;0.90;;;;;;;0.34;100.00;90999.25;5033739;28;20128;-78
2022/12/16 01:44:20;;;;;;;0.68;0.65;;;;;;;0.30;100.00;90987.16;5033890;28;20523;-78
2022/12/16 01:46:49;;;;;;;1.42;0.70;;;;;;;0.33;100.00;90991.75;5033461;28;20030;-78
2022/12/16 01:49:41;;;;;;;1.38;0.93;;;;;;;0.34;100.00;90993.31;5031811;28;20033;-78
2022/12/16 01:52:13;;;;;;;0.88;0.88;;;;;;;0.35;100.00;90994.84;5034135;28;20041;-78
2022/12/16 01:54:42;;;;;;;0.75;0.75;;;;;;;0.35;100.00;90995.63;5032030;28;20029;-78
2022/12/16 01:57:14;;;;;;;1.02;0.90;;;;;;;0.37;100.00;90995.38;5033458;28;20033;-78
2022/12/16 01:59:45;;;;;;;0.73;0.73;;;;;;;0.39;100.00;90990.72;5034026;28;20052;-78
2022/12/16 02:02:12;;;;;;;1.35;0.70;;;;;;;0.43;100.00;90989.19;5031801;28;20479;-78
2022/12/16 02:05:19;;;;;;;0.68;0.68;;;;;;;0.44;100.00;90993.28;5033033;28;20048;-78
2022/12/16 02:07:24;;;;;;;0.68;0.68;;;;;;;0.46;100.00;90991.22;5033160;28;20037;-78
2022/12/16 02:09:51;;;;;;;1.05;0.80;;;;;;;0.48;100.00;90991.75;5019566;28;20470;-77
2022/12/16 02:12:24;;;;;;;0.80;0.80;;;;;;;0.48;100.00;90988.41;5013233;28;20403;-78
2022/12/16 02:15:22;;;;;;;0.75;0.70;;;;;;;0.45;100.00;90991.47;5013547;28;20030;-78
2022/12/16 02:18:01;;;;;;;0.88;0.82;;;;;;;0.47;100.00;90990.19;5011914;28;20123;-78
2022/12/16 02:20:46;;;;;;;1.35;1.10;;;;;;;0.47;100.00;90990.19;5013943;28;20476;-78
2022/12/16 02:23:42;;;;;;;0.98;0.82;;;;;;;0.49;100.00;90993.28;5015647;28;20465;-77
2022/12/16 02:26:33;;;;;;;1.00;0.80;;;;;;;0.49;100.00;90993.28;5032069;28;20568;-78
2022/12/16 02:29:11;;;;;;;1.77;1.13;;;;;;;0.50;100.00;90989.69;5032074;28;20045;-78
2022/12/16 02:31:51;;;;;;;2.00;0.80;;;;;;;0.51;100.00;90993.03;5034173;28;20514;-78
2022/12/16 02:34:54;;;;;;;1.65;0.98;;;;;;;0.52;100.00;90990.19;5049978;28;20048;-77
2022/12/16 02:37:45;;;;;;;1.73;1.00;;;;;;;0.55;100.00;90996.63;5049974;28;20033;-77
2022/12/16 02:40:29;;;;;;;3.50;1.10;;;;;;;0.55;100.00;90999.97;5016111;28;20554;-78
2022/12/16 02:43:06;;;;;;;2.40;1.10;;;;;;;0.53;100.00;91007.19;5012985;28;20151;-78
2022/12/16 02:45:34;;;;;;;3.10;1.10;;;;;;;0.50;100.00;90996.66;5013283;28;20034;-78
2022/12/16 02:48:00;;;;;;;1.60;1.00;;;;;;;0.52;100.00;90995.34;5012635;28;20725;-78
2022/12/16 02:50:39;;;;;;;1.05;0.95;;;;;;;0.49;100.00;90987.34;5012467;28;20046;-78
2022/12/16 02:53:08;;;;;;;1.15;1.00;;;;;;;0.51;100.00;91001.50;5030558;28;20544;-78
2022/12/16 02:55:39;;;;;;;1.45;1.10;;;;;;;0.51;100.00;90996.38;5031007;28;20132;-78
2022/12/16 02:58:20;;;;;;;1.23;0.98;;;;;;;0.51;100.00;90996.38;5033024;28;20036;-78
2022/12/16 03:01:29;;;;;;;1.05;0.90;;;;;;;0.51;100.00;90998.16;5032920;28;20034;-78
2022/12/16 03:04:02;;;;;;;3.55;1.02;;;;;;;0.51;100.00;90993.03;4974637;28;20060;-77
2022/12/16 03:06:32;;;;;;;3.58;2.30;;;;;;;0.49;100.00;90989.94;5032618;28;20041;-78
2022/12/16 03:09:02;;;;;;;3.60;2.08;;;;;;;0.47;100.00;90982.47;5031739;28;20033;-78
2022/12/16 03:11:29;;;;;;;3.67;1.50;;;;;;;0.50;100.00;90988.91;5032816;28;20116;-78
2022/12/16 03:13:56;;;;;;;4.50;1.38;;;;;;;0.53;100.00;90994.31;5032559;28;20033;-78
2022/12/16 03:16:27;;;;;;;2.33;1.35;;;;;;;0.49;100.00;90989.94;5032592;28;20450;-78
2022/12/16 03:19:01;;;;;;;2.25;1.20;;;;;;;0.61;100.00;90991.19;5032462;28;20037;-77
2022/12/16 03:21:37;;;;;;;2.63;1.25;;;;;;;0.66;100.00;90990.41;5033163;28;20040;-78
2022/12/16 03:24:06;;;;;;;2.97;1.58;;;;;;;0.71;100.00;90992.19;5031923;28;20091;-78
2022/12/16 03:26:39;;;;;;;9.05;1.77;;;;;;;0.69;100.00;90984.72;5032182;28;20052;-78
2022/12/16 03:29:26;;;;;;;5.03;2.15;;;;;;;0.70;100.00;90993.22;5032493;28;20064;-77
2022/12/16 03:32:00;;;;;;;5.05;2.17;;;;;;;0.67;100.00;90989.38;5033082;28;20037;-78
2022/12/16 03:34:35;;;;;;;6.30;2.28;;;;;;;0.66;100.00;90992.22;5032701;28;20112;-78
2022/12/16 03:37:07;;;;;;;5.95;2.20;;;;;;;0.65;100.00;90995.81;5032993;28;20033;-78
2022/12/16 03:39:38;;;;;;;4.82;1.90;;;;;;;0.63;100.00;90993.50;5032467;28;20034;-78
2022/12/16 03:42:05;;;;;;;5.18;1.70;;;;;;;0.58;100.00;90989.13;5036237;28;20113;-78
2022/12/16 03:44:32;;;;;;;4.88;1.92;;;;;;;0.61;100.00;90988.63;5018773;28;20088;-78
2022/12/16 03:46:57;;;;;;;4.70;1.88;;;;;;;0.60;100.00;90992.22;5036409;28;20041;-78
2022/12/16 03:49:23;;;;;;;4.28;1.80;;;;;;;0.62;100.00;90994.53;5034418;28;20044;-78
2022/12/16 03:51:48;;;;;;;6.40;2.35;;;;;;;0.61;100.00;90995.59;5008349;28;20049;-78
2022/12/16 03:54:14;;;;;;;4.38;2.10;;;;;;;0.62;100.00;90989.38;5032418;28;20041;-79
2022/12/16 03:56:40;;;;;;;4.43;2.30;;;;;;;0.62;100.00;90990.16;5036337;28;20499;-78
2022/12/16 03:59:06;;;;;;;6.40;2.40;;;;;;;0.62;100.00;90989.38;5035386;28;20025;-79
2022/12/16 04:01:31;;;;;;;6.30;2.00;;;;;;;0.61;100.00;90988.63;5036848;28;20517;-79
2022/12/16 04:03:57;;;;;;;8.15;1.85;;;;;;;0.64;100.00;90991.72;5033996;28;20033;-77
2022/12/16 04:06:22;;;;;;;5.55;1.90;;;;;;;0.64;100.00;90996.88;5015176;28;20037;-79
2022/12/16 04:08:48;;;;;;;13.43;2.75;;;;;;;0.62;100.00;90995.31;4999467;28;20402;-78
2022/12/16 04:25:26;;;;;;;0.85;0.70;;;;;;;0.79;100.00;90994.25;5014885;28;20510;-78
2022/12/16 04:27:52;;;;;;;0.73;0.68;;;;;;;0.87;100.00;90990.34;5016089;28;20045;-78
2022/12/16 04:30:19;;;;;;;2.13;1.20;;;;;;;0.88;100.00;90990.09;5016286;28;20424;-78
